Terminal Aerodrome Forecast
Issued by NWS

Home | Current Version | Previous Version | Text Only | Print | Product List | Glossary On
Versions: 1 2 3 4 5 6 7 8 9 10 11 12 13 14 15 16 17
000
FTUS45 KREV 180500
TAFMMH
TAF
KMMH 180537Z 1806/1906 VRB03KT P6SM VCSH SCT070 BKN120
     FM181000 VRB03KT 6SM -SHSN SCT028 BKN050
     FM181600 VRB03KT P6SM SCT040 BKN180
      AMD NOT SKED 1806/1814=

USA.gov is the U.S. government's official web portal to all federal, state and local government web resources and services.